createdAt,value
2023-01-27T00:01:37.686Z,101931.03
2023-01-27T00:04:07.161Z,101941.81
2023-01-27T00:06:34.065Z,101934.88
2023-01-27T00:09:05.714Z,101938.16
2023-01-27T00:11:56.230Z,101946.97
2023-01-27T00:14:23.827Z,101941.13
2023-01-27T00:16:53.532Z,101941.75
2023-01-27T00:19:20.509Z,101948.97
2023-01-27T00:22:08.740Z,101950.41
2023-01-27T00:24:38.485Z,101945.53
2023-01-27T00:27:09.453Z,101949.09
2023-01-27T00:29:37.260Z,101954.44
2023-01-27T00:32:24.221Z,101955.06
2023-01-27T00:34:53.604Z,101952.47
2023-01-27T00:37:20.906Z,101955.50
2023-01-27T00:39:47.749Z,101958.50
2023-01-27T00:42:14.672Z,101949.25
2023-01-27T00:45:01.574Z,101956.22
2023-01-27T00:47:28.583Z,101956.34
2023-01-27T00:49:58.153Z,101959.50
2023-01-27T00:52:25.362Z,101964.34
2023-01-27T00:54:54.696Z,101968.94
2023-01-27T00:57:23.824Z,101974.47
2023-01-27T00:59:53.465Z,101979.69
2023-01-27T01:02:22.863Z,101985.91
2023-01-27T01:04:49.878Z,101972.59
2023-01-27T01:07:19.199Z,101978.13
2023-01-27T01:09:46.209Z,101979.88
2023-01-27T01:12:13.342Z,101971.88
2023-01-27T01:14:42.951Z,101974.84
2023-01-27T01:17:09.763Z,101974.53
2023-01-27T01:19:36.738Z,101971.06
2023-01-27T01:22:05.840Z,101983.00
2023-01-27T01:24:32.848Z,101979.03
2023-01-27T01:27:00.446Z,101982.59
2023-01-27T01:29:29.574Z,101984.63
2023-01-27T01:31:58.892Z,101982.28
2023-01-27T01:34:25.769Z,101988.81
2023-01-27T01:36:52.730Z,101997.91
2023-01-27T01:39:19.772Z,101992.84
2023-01-27T01:41:47.103Z,102000.50
2023-01-27T01:44:31.673Z,101994.56
2023-01-27T01:47:01.067Z,101998.34
2023-01-27T01:49:36.613Z,101995.75
2023-01-27T01:52:24.577Z,101995.00
2023-01-27T01:54:55.821Z,102006.53
2023-01-27T01:57:34.339Z,102000.72
2023-01-27T02:00:10.482Z,101998.84
2023-01-27T02:02:39.411Z,102004.38
2023-01-27T02:05:16.724Z,102013.00
2023-01-27T02:08:30.149Z,102004.28
2023-01-27T02:10:57.740Z,102006.22
2023-01-27T02:13:24.767Z,102000.41
2023-01-27T02:15:54.981Z,102007.06
2023-01-27T02:18:23.087Z,102007.91
2023-01-27T02:20:53.825Z,102011.56
2023-01-27T02:23:29.372Z,102016.72
2023-01-27T02:26:11.203Z,102012.44
2023-01-27T02:28:41.207Z,102019.78
2023-01-27T02:31:10.584Z,102020.75
2023-01-27T02:33:37.662Z,102017.84
2023-01-27T02:36:11.993Z,102009.66
2023-01-27T02:38:55.527Z,102021.19
2023-01-27T02:41:35.362Z,102013.19
2023-01-27T02:44:06.777Z,102021.72
2023-01-27T02:46:34.042Z,102020.84
2023-01-27T02:49:01.863Z,102021.91
2023-01-27T02:51:31.364Z,102031.59
2023-01-27T02:54:00.721Z,102034.09
2023-01-27T02:56:28.523Z,102037.63
2023-01-27T02:59:01.157Z,102036.34
2023-01-27T03:01:28.184Z,102041.31
2023-01-27T03:03:55.170Z,102048.00
2023-01-27T03:06:24.736Z,102047.13
2023-01-27T03:08:53.883Z,102049.59
2023-01-27T03:11:39.173Z,102053.47
2023-01-27T03:14:08.445Z,102052.84
2023-01-27T03:16:54.246Z,102050.91
2023-01-27T03:19:23.671Z,102058.88
2023-01-27T03:21:53.688Z,102055.41
2023-01-27T03:24:21.109Z,102063.16
2023-01-27T03:26:48.651Z,102067.47
2023-01-27T03:29:34.502Z,102066.28
2023-01-27T03:32:01.372Z,102072.97
2023-01-27T03:34:30.344Z,102075.66
2023-01-27T03:37:18.118Z,102067.91
2023-01-27T03:40:03.684Z,102083.41
2023-01-27T03:42:51.243Z,102071.34
2023-01-27T03:45:36.785Z,102071.47
2023-01-27T03:48:04.146Z,102079.22
2023-01-27T03:50:43.827Z,102088.91
2023-01-27T03:53:13.508Z,102083.59
2023-01-27T03:55:40.473Z,102089.50
2023-01-27T03:58:32.234Z,102092.97
2023-01-27T04:01:08.595Z,102098.88
2023-01-27T04:03:55.020Z,102110.56
2023-01-27T04:06:44.967Z,102101.84
2023-01-27T04:09:13.698Z,102104.09
2023-01-27T04:11:55.963Z,102106.56
2023-01-27T04:14:30.574Z,102113.22
2023-01-27T04:17:12.539Z,102113.91
2023-01-27T04:19:39.901Z,102112.47
2023-01-27T04:22:12.095Z,102114.75
2023-01-27T04:24:39.534Z,102107.16
2023-01-27T04:27:13.324Z,102120.31
2023-01-27T04:29:42.227Z,102117.28
2023-01-27T04:32:12.396Z,102121.63
2023-01-27T04:34:40.517Z,102126.50
2023-01-27T04:37:10.742Z,102128.88
2023-01-27T04:39:41.503Z,102137.03
2023-01-27T04:42:10.708Z,102147.03
2023-01-27T04:44:37.752Z,102147.22
2023-01-27T04:47:04.764Z,102149.78
2023-01-27T04:49:34.214Z,102157.03
2023-01-27T04:52:01.168Z,102162.09
2023-01-27T04:54:30.733Z,102160.22
2023-01-27T04:57:00.735Z,102165.25
2023-01-27T04:59:32.465Z,102164.22
2023-01-27T05:02:01.871Z,102168.94
2023-01-27T05:04:28.876Z,102172.28
2023-01-27T05:06:55.923Z,102171.06
2023-01-27T05:09:25.572Z,102169.81
2023-01-27T05:11:52.546Z,102177.78
2023-01-27T05:14:23.695Z,102174.22
2023-01-27T05:16:55.270Z,102172.66
2023-01-27T05:19:22.232Z,102171.72
2023-01-27T05:21:49.264Z,102180.88
2023-01-27T05:24:16.313Z,102180.41
2023-01-27T05:26:43.294Z,102181.91
2023-01-27T05:29:12.480Z,102186.44
2023-01-27T05:31:39.437Z,102175.16
2023-01-27T05:34:06.684Z,102183.59
2023-01-27T05:36:33.714Z,102179.19
2023-01-27T05:39:00.904Z,102181.03
2023-01-27T05:41:31.902Z,102187.31
2023-01-27T05:43:59.308Z,102184.88
2023-01-27T05:46:32.110Z,102190.78
2023-01-27T05:49:06.203Z,102190.50
2023-01-27T05:51:39.985Z,102203.69
2023-01-27T05:54:08.665Z,102200.00
2023-01-27T05:56:36.220Z,102199.44
2023-01-27T05:59:03.125Z,102194.22
2023-01-27T06:01:35.015Z,102194.66
2023-01-27T06:04:02.380Z,102192.94
2023-01-27T06:06:32.016Z,102205.50
2023-01-27T06:09:02.346Z,102201.28
2023-01-27T06:11:33.224Z,102196.19
2023-01-27T06:14:02.455Z,102196.84
2023-01-27T06:16:29.398Z,102198.41
2023-01-27T06:19:01.167Z,102200.72
2023-01-27T06:21:32.578Z,102196.78
2023-01-27T06:24:02.092Z,102196.59
2023-01-27T06:26:33.404Z,102190.84
2023-01-27T06:29:00.390Z,102201.91
2023-01-27T06:31:28.428Z,102206.81
2023-01-27T06:33:57.553Z,102205.34
2023-01-27T06:36:24.552Z,102208.19
2023-01-27T06:38:56.535Z,102213.78
2023-01-27T06:41:26.416Z,102227.06
2023-01-27T06:43:53.686Z,102229.41
2023-01-27T06:46:23.004Z,102230.16
2023-01-27T06:48:50.032Z,102238.28
2023-01-27T06:51:17.056Z,102242.00
2023-01-27T06:53:44.158Z,102248.19
2023-01-27T06:56:11.383Z,102247.63
2023-01-27T06:58:40.738Z,102246.41
2023-01-27T07:01:10.208Z,102251.91
2023-01-27T07:03:39.416Z,102250.44
2023-01-27T07:06:06.776Z,102256.97
2023-01-27T07:08:36.736Z,102256.13
2023-01-27T07:11:07.427Z,102255.09
2023-01-27T07:13:36.768Z,102262.72
2023-01-27T07:16:04.194Z,102277.25
2023-01-27T07:18:33.869Z,102265.34
2023-01-27T07:21:00.813Z,102279.16
2023-01-27T07:23:27.886Z,102288.44
2023-01-27T07:25:54.828Z,102290.91
2023-01-27T07:28:21.842Z,102298.78
2023-01-27T07:30:51.475Z,102307.63
2023-01-27T07:33:18.539Z,102307.31
2023-01-27T07:35:49.890Z,102318.25
2023-01-27T07:38:17.060Z,102315.59
2023-01-27T07:40:48.740Z,102325.31
2023-01-27T07:43:15.881Z,102325.97
2023-01-27T07:45:48.998Z,102336.81
2023-01-27T07:48:16.570Z,102329.16
2023-01-27T07:50:43.707Z,102339.72
2023-01-27T07:53:12.950Z,102340.59
2023-01-27T07:55:40.135Z,102349.69
2023-01-27T07:58:09.975Z,102353.13
2023-01-27T08:00:37.224Z,102350.19
2023-01-27T08:03:06.203Z,102352.81
2023-01-27T08:05:35.001Z,102351.06
2023-01-27T08:08:06.597Z,102352.28
2023-01-27T08:10:33.566Z,102349.63
2023-01-27T08:13:02.941Z,102356.06
2023-01-27T08:15:30.158Z,102351.25
2023-01-27T08:17:59.231Z,102359.34
2023-01-27T08:20:28.193Z,102360.78
2023-01-27T08:22:57.881Z,102359.31
2023-01-27T08:25:27.970Z,102355.78
2023-01-27T08:27:57.349Z,102366.41
2023-01-27T08:30:25.296Z,102356.78
2023-01-27T08:32:54.841Z,102356.59
2023-01-27T08:35:21.953Z,102357.38
2023-01-27T08:37:49.142Z,102358.16
2023-01-27T08:40:17.693Z,102351.09
2023-01-27T08:42:46.921Z,102359.25
2023-01-27T08:45:16.088Z,102367.16
2023-01-27T08:47:43.199Z,102364.06
2023-01-27T08:50:13.758Z,102364.28
2023-01-27T08:52:43.321Z,102362.56
2023-01-27T08:55:10.450Z,102365.47
2023-01-27T08:57:37.878Z,102370.06
2023-01-27T09:00:09.780Z,102370.81
2023-01-27T09:02:38.969Z,102378.72
2023-01-27T09:05:07.049Z,102373.13
2023-01-27T09:07:34.354Z,102372.03
2023-01-27T09:10:14.018Z,102377.19
2023-01-27T09:12:47.318Z,102377.41
2023-01-27T09:15:15.741Z,102373.16
2023-01-27T09:17:45.283Z,102376.72
2023-01-27T09:20:13.196Z,102373.44
2023-01-27T09:22:41.349Z,102375.47
2023-01-27T09:25:17.780Z,102368.84
2023-01-27T09:27:47.449Z,102377.59
2023-01-27T09:30:16.677Z,102395.47
2023-01-27T09:32:45.268Z,102397.94
2023-01-27T09:35:15.288Z,102388.84
2023-01-27T09:38:04.557Z,102389.88
2023-01-27T09:40:34.038Z,102394.78
2023-01-27T09:43:25.067Z,102396.91
2023-01-27T09:46:24.099Z,102398.16
2023-01-27T09:49:21.387Z,102399.09
2023-01-27T09:52:20.477Z,102402.75
2023-01-27T09:55:38.388Z,102406.41
2023-01-27T09:58:17.044Z,102407.66
2023-01-27T10:01:18.366Z,102398.63
2023-01-27T10:04:06.771Z,102394.97
2023-01-27T10:07:43.300Z,102398.44
2023-01-27T10:10:31.493Z,102410.13
2023-01-27T10:13:16.391Z,102406.13
2023-01-27T10:16:20.462Z,102401.78
2023-01-27T10:19:15.891Z,102405.84
2023-01-27T10:22:02.587Z,102402.75
2023-01-27T10:24:38.704Z,102411.59
2023-01-27T10:27:24.558Z,102401.81
2023-01-27T10:30:37.385Z,102399.69
2023-01-27T10:33:52.546Z,102405.56
2023-01-27T10:36:51.214Z,102408.34
2023-01-27T10:39:44.079Z,102412.34
2023-01-27T10:43:04.308Z,102403.31
2023-01-27T10:45:56.363Z,102408.91
2023-01-27T10:48:55.057Z,102414.75
2023-01-27T10:51:39.219Z,102410.25
2023-01-27T10:54:35.169Z,102410.06
2023-01-27T10:57:38.598Z,102404.50
2023-01-27T11:03:33.520Z,102414.28
2023-01-27T11:06:08.524Z,102408.16
2023-01-27T11:08:41.906Z,102406.22
2023-01-27T11:11:30.715Z,102405.06
2023-01-27T11:14:27.545Z,102405.78
2023-01-27T11:17:31.309Z,102402.72
2023-01-27T11:20:25.576Z,102392.63
2023-01-27T11:23:24.257Z,102395.03
2023-01-27T11:26:34.263Z,102396.13
2023-01-27T11:29:34.688Z,102400.16
2023-01-27T11:32:23.614Z,102397.28
2023-01-27T11:35:09.864Z,102400.25
2023-01-27T11:37:48.135Z,102393.25
2023-01-27T11:40:22.187Z,102398.25
2023-01-27T11:42:51.646Z,102385.97
2023-01-27T11:45:21.165Z,102389.69
2023-01-27T11:47:52.896Z,102394.22
2023-01-27T11:50:24.850Z,102383.00
2023-01-27T11:53:04.451Z,102392.91
2023-01-27T11:55:43.227Z,102384.47
2023-01-27T11:58:25.572Z,102388.47
2023-01-27T12:01:06.130Z,102380.59
2023-01-27T12:03:41.802Z,102385.97
2023-01-27T12:07:17.704Z,102386.16
2023-01-27T12:09:44.696Z,102384.53
2023-01-27T12:12:14.967Z,102384.03
2023-01-27T12:15:03.225Z,102385.78
2023-01-27T12:17:43.819Z,102382.22
2023-01-27T12:20:35.111Z,102374.59
2023-01-27T12:23:18.713Z,102377.31
2023-01-27T12:25:53.358Z,102372.84
2023-01-27T12:28:37.972Z,102368.72
2023-01-27T12:31:13.847Z,102373.81
2023-01-27T12:33:59.952Z,102372.69
2023-01-27T12:36:30.172Z,102372.19
2023-01-27T12:39:03.420Z,102367.59
2023-01-27T12:41:39.117Z,102369.72
2023-01-27T12:44:26.377Z,102371.78
2023-01-27T12:47:04.055Z,102371.91
2023-01-27T12:49:40.630Z,102379.41
2023-01-27T12:52:18.421Z,102373.16
2023-01-27T12:54:46.232Z,102378.56
2023-01-27T12:57:20.953Z,102382.78
2023-01-27T12:59:55.390Z,102374.03
2023-01-27T13:02:33.980Z,102373.66
2023-01-27T13:05:05.557Z,102375.84
2023-01-27T13:07:44.566Z,102365.56
2023-01-27T13:10:25.803Z,102371.41
2023-01-27T13:12:57.517Z,102371.03
2023-01-27T13:15:28.635Z,102375.31
2023-01-27T13:18:00.465Z,102373.84
2023-01-27T13:20:45.715Z,102369.09
2023-01-27T13:23:29.383Z,102369.00
2023-01-27T13:26:11.349Z,102372.00
2023-01-27T13:28:58.931Z,102372.94
2023-01-27T13:31:49.776Z,102374.47
2023-01-27T13:34:24.850Z,102373.72
2023-01-27T13:37:28.258Z,102372.66
2023-01-27T13:39:57.948Z,102381.59
2023-01-27T13:42:53.415Z,102378.91
2023-01-27T13:45:32.716Z,102381.97
2023-01-27T13:48:13.224Z,102380.56
2023-01-27T13:50:53.741Z,102384.09
2023-01-27T13:53:21.090Z,102375.00
2023-01-27T13:56:06.118Z,102380.91
2023-01-27T13:59:11.000Z,102374.41
2023-01-27T14:02:06.521Z,102380.50
2023-01-27T14:04:42.747Z,102380.25
2023-01-27T14:07:48.739Z,102384.63
2023-01-27T14:10:59.723Z,102383.31
2023-01-27T14:14:03.752Z,102381.72
2023-01-27T14:16:42.869Z,102379.75
2023-01-27T14:19:40.231Z,102382.53
2023-01-27T14:22:28.670Z,102381.56
2023-01-27T14:25:15.094Z,102384.41
2023-01-27T14:28:36.139Z,102388.31
2023-01-27T14:32:01.640Z,102377.59
2023-01-27T14:35:22.563Z,102374.25
2023-01-27T14:38:27.677Z,102370.53
2023-01-27T14:41:21.844Z,102380.78
2023-01-27T14:44:33.903Z,102375.41
2023-01-27T14:47:24.192Z,102372.31
2023-01-27T14:51:01.448Z,102376.78
2023-01-27T14:54:01.604Z,102377.13
2023-01-27T14:56:46.959Z,102369.31
2023-01-27T15:00:11.374Z,102368.81
2023-01-27T15:02:56.679Z,102369.94
2023-01-27T15:05:44.684Z,102382.19
2023-01-27T15:08:37.922Z,102380.84
2023-01-27T15:11:29.756Z,102385.81
2023-01-27T15:14:12.477Z,102390.25
2023-01-27T15:17:38.088Z,102395.31
2023-01-27T15:20:48.448Z,102395.47
2023-01-27T15:23:48.030Z,102396.53
2023-01-27T15:26:21.669Z,102391.69
2023-01-27T15:28:52.255Z,102405.97
2023-01-27T15:31:19.455Z,102409.56
2023-01-27T15:34:16.788Z,102410.31
2023-01-27T15:37:12.209Z,102422.06
2023-01-27T15:40:06.285Z,102414.94
2023-01-27T15:42:53.350Z,102423.28
2023-01-27T15:45:32.004Z,102419.53
2023-01-27T15:48:22.407Z,102427.31
2023-01-27T15:50:59.382Z,102428.69
2023-01-27T15:53:44.813Z,102438.19
2023-01-27T15:56:12.302Z,102432.34
2023-01-27T15:58:43.176Z,102436.34
2023-01-27T16:01:25.427Z,102431.09
2023-01-27T16:04:13.062Z,102433.31
2023-01-27T16:07:02.117Z,102438.59
2023-01-27T16:09:41.900Z,102447.34
2023-01-27T16:12:24.487Z,102441.84
2023-01-27T16:15:15.106Z,102450.13
2023-01-27T16:18:08.554Z,102451.53
2023-01-27T16:20:55.703Z,102448.72
2023-01-27T16:23:50.282Z,102454.22
2023-01-27T16:26:36.651Z,102447.53
2023-01-27T16:29:12.405Z,102461.00
2023-01-27T16:31:43.718Z,102458.22
2023-01-27T16:34:25.997Z,102459.59
2023-01-27T16:37:19.853Z,102459.19
2023-01-27T16:39:59.091Z,102473.00
2023-01-27T16:42:56.166Z,102470.84
2023-01-27T16:45:28.074Z,102473.06
2023-01-27T16:48:06.285Z,102482.31
2023-01-27T16:50:44.759Z,102481.19
2023-01-27T16:53:19.930Z,102472.88
2023-01-27T16:56:02.718Z,102474.78
2023-01-27T16:58:43.862Z,102487.88
2023-01-27T17:01:43.559Z,102478.38
2023-01-27T17:04:21.969Z,102481.84
2023-01-27T17:06:51.711Z,102490.91
2023-01-27T17:09:30.087Z,102488.59
2023-01-27T17:11:59.469Z,102484.34
2023-01-27T17:14:38.230Z,102492.03
2023-01-27T17:17:17.965Z,102487.69
2023-01-27T17:19:50.015Z,102490.44
2023-01-27T17:22:28.704Z,102499.91
2023-01-27T17:25:02.507Z,102494.22
2023-01-27T17:27:42.267Z,102492.03
2023-01-27T17:30:19.155Z,102493.06
2023-01-27T17:32:55.989Z,102492.78
2023-01-27T17:35:32.905Z,102497.84
2023-01-27T17:38:23.553Z,102491.63
2023-01-27T17:40:57.597Z,102502.13
2023-01-27T17:43:34.534Z,102502.53
2023-01-27T17:46:21.241Z,102505.66
2023-01-27T17:49:01.393Z,102505.66
2023-01-27T17:51:53.206Z,102511.03
2023-01-27T17:54:30.111Z,102510.81
2023-01-27T17:57:20.184Z,102513.63
2023-01-27T18:00:00.759Z,102516.06
2023-01-27T18:02:35.639Z,102508.41
2023-01-27T18:05:17.183Z,102508.66
2023-01-27T18:07:44.238Z,102509.28
2023-01-27T18:10:28.146Z,102511.47
2023-01-27T18:12:55.177Z,102502.69
2023-01-27T18:15:39.046Z,102509.53
2023-01-27T18:18:30.581Z,102506.16
2023-01-27T18:21:09.467Z,102513.78
2023-01-27T18:23:51.071Z,102515.16
2023-01-27T18:26:42.330Z,102515.28
2023-01-27T18:29:17.358Z,102519.16
2023-01-27T18:32:13.373Z,102518.28
2023-01-27T18:35:00.399Z,102518.53
2023-01-27T18:37:28.699Z,102508.34
2023-01-27T18:40:00.886Z,102517.38
2023-01-27T18:42:31.024Z,102513.75
2023-01-27T18:44:58.326Z,102519.84
2023-01-27T18:47:36.313Z,102524.63
2023-01-27T18:50:24.195Z,102529.16
2023-01-27T18:52:54.317Z,102526.41
2023-01-27T18:55:29.864Z,102524.31
2023-01-27T18:57:59.524Z,102537.13
2023-01-27T19:00:53.637Z,102532.66
2023-01-27T19:03:24.651Z,102535.53
2023-01-27T19:05:52.083Z,102534.88
2023-01-27T19:08:25.655Z,102529.69
2023-01-27T19:10:53.097Z,102539.25
2023-01-27T19:13:20.425Z,102546.53
2023-01-27T19:15:51.724Z,102543.56
2023-01-27T19:18:33.906Z,102542.78
2023-01-27T19:21:03.915Z,102537.25
2023-01-27T19:23:33.362Z,102543.22
2023-01-27T19:26:03.569Z,102537.66
2023-01-27T19:28:37.231Z,102548.50
2023-01-27T19:31:07.666Z,102540.25
2023-01-27T19:33:37.177Z,102542.72
2023-01-27T19:36:44.601Z,102544.53
2023-01-27T19:39:14.354Z,102540.44
2023-01-27T19:41:45.617Z,102540.09
2023-01-27T19:44:13.705Z,102543.41
2023-01-27T19:46:42.669Z,102541.13
2023-01-27T19:49:22.512Z,102536.44
2023-01-27T19:51:51.633Z,102538.16
2023-01-27T19:54:18.650Z,102540.34
2023-01-27T19:56:46.014Z,102543.75
2023-01-27T19:59:13.057Z,102538.91
2023-01-27T20:01:45.994Z,102552.38
2023-01-27T20:04:15.671Z,102547.91
2023-01-27T20:06:45.049Z,102555.28
2023-01-27T20:09:12.017Z,102555.09
2023-01-27T20:11:42.411Z,102557.78
2023-01-27T20:14:25.902Z,102553.81
2023-01-27T20:16:55.223Z,102551.56
2023-01-27T20:19:23.033Z,102549.47
2023-01-27T20:21:55.528Z,102553.53
2023-01-27T20:24:26.950Z,102565.59
2023-01-27T20:26:55.478Z,102569.19
2023-01-27T20:29:25.034Z,102571.16
2023-01-27T20:31:54.667Z,102558.75
2023-01-27T20:34:24.678Z,102554.78
2023-01-27T20:36:51.618Z,102559.56
2023-01-27T20:39:22.159Z,102558.16
2023-01-27T20:41:51.210Z,102554.03
2023-01-27T20:44:20.907Z,102550.03
2023-01-27T20:46:47.968Z,102547.34
2023-01-27T20:49:17.401Z,102545.09
2023-01-27T20:51:44.496Z,102549.50
2023-01-27T20:54:14.759Z,102542.06
2023-01-27T20:56:41.727Z,102536.91
2023-01-27T20:59:08.719Z,102540.50
2023-01-27T21:01:35.887Z,102528.88
2023-01-27T21:04:02.794Z,102545.97
2023-01-27T21:06:29.713Z,102537.91
2023-01-27T21:08:59.186Z,102529.94
2023-01-27T21:11:26.170Z,102536.78
2023-01-27T21:13:55.492Z,102532.00
2023-01-27T21:16:22.561Z,102524.28
2023-01-27T21:18:51.682Z,102521.31
2023-01-27T21:21:27.488Z,102521.44
2023-01-27T21:23:56.220Z,102524.56
2023-01-27T21:26:24.009Z,102531.28
2023-01-27T21:28:51.071Z,102526.22
2023-01-27T21:31:20.583Z,102523.16
2023-01-27T21:33:50.911Z,102529.22
2023-01-27T21:36:19.316Z,102537.63
2023-01-27T21:38:47.135Z,102546.88
2023-01-27T21:41:37.850Z,102533.88
2023-01-27T21:44:25.093Z,102532.72
2023-01-27T21:46:52.104Z,102540.94
2023-01-27T21:49:19.274Z,102538.31
2023-01-27T21:51:48.102Z,102538.91
2023-01-27T21:54:19.298Z,102538.38
2023-01-27T21:56:46.220Z,102538.78
2023-01-27T21:59:13.305Z,102537.75
2023-01-27T22:01:42.840Z,102543.56
2023-01-27T22:04:10.211Z,102530.41
2023-01-27T22:06:37.938Z,102538.91
2023-01-27T22:09:04.966Z,102535.78
2023-01-27T22:11:32.211Z,102526.00
2023-01-27T22:14:01.688Z,102528.16
2023-01-27T22:16:28.912Z,102523.00
2023-01-27T22:18:55.807Z,102526.47
2023-01-27T22:21:24.914Z,102513.78
2023-01-27T22:23:54.351Z,102519.50
2023-01-27T22:26:21.291Z,102508.25
2023-01-27T22:28:52.710Z,102509.16
2023-01-27T22:31:22.665Z,102512.72
2023-01-27T22:33:49.681Z,102500.78
2023-01-27T22:36:16.725Z,102513.41
2023-01-27T22:38:46.136Z,102514.38
2023-01-27T22:41:13.221Z,102526.00
2023-01-27T22:43:42.767Z,102524.50
2023-01-27T22:46:14.231Z,102519.25
2023-01-27T22:48:43.517Z,102521.84
2023-01-27T22:51:10.541Z,102520.09
2023-01-27T22:53:39.781Z,102518.78
2023-01-27T22:56:09.745Z,102520.25
2023-01-27T22:58:36.911Z,102519.47
2023-01-27T23:01:08.194Z,102529.72
2023-01-27T23:03:35.173Z,102525.44
2023-01-27T23:06:07.261Z,102531.00
2023-01-27T23:08:37.370Z,102520.66
2023-01-27T23:11:06.316Z,102532.00
2023-01-27T23:13:34.655Z,102534.88
2023-01-27T23:16:01.701Z,102526.50
2023-01-27T23:18:31.054Z,102532.50
2023-01-27T23:21:04.885Z,102541.19
2023-01-27T23:23:34.328Z,102538.75
2023-01-27T23:26:01.474Z,102543.44
2023-01-27T23:28:30.691Z,102529.22
2023-01-27T23:30:57.825Z,102535.00
2023-01-27T23:33:30.122Z,102529.22
2023-01-27T23:36:00.148Z,102534.47
2023-01-27T23:38:33.187Z,102525.88
2023-01-27T23:41:24.270Z,102524.22
2023-01-27T23:43:53.036Z,102519.13
2023-01-27T23:46:20.310Z,102522.94
2023-01-27T23:48:55.298Z,102521.38
2023-01-27T23:51:23.594Z,102517.31
2023-01-27T23:53:51.268Z,102523.94
2023-01-27T23:56:20.352Z,102523.94
2023-01-27T23:58:47.775Z,102516.03
